createdAt,value
2018-06-23T00:02:21.675Z,10.50
2018-06-23T00:04:50.176Z,10.60
2018-06-23T00:07:18.730Z,10.50
2018-06-23T00:09:47.254Z,10.40
2018-06-23T00:14:44.220Z,10.40
2018-06-23T00:19:41.367Z,10.40
2018-06-23T00:22:09.921Z,10.40
2018-06-23T00:24:38.515Z,10.50
2018-06-23T00:27:06.987Z,10.50
2018-06-23T00:29:35.537Z,10.60
2018-06-23T00:32:04.107Z,10.50
2018-06-23T00:34:32.620Z,10.50
2018-06-23T00:37:01.110Z,10.60
2018-06-23T00:39:29.846Z,10.50
2018-06-23T00:41:58.672Z,10.70
2018-06-23T00:44:27.392Z,10.60
2018-06-23T00:46:56.099Z,10.70
2018-06-23T00:49:24.716Z,10.60
2018-06-23T00:51:53.230Z,10.70
2018-06-23T00:54:21.867Z,10.60
2018-06-23T00:56:50.632Z,10.70
2018-06-23T00:59:30.387Z,10.60
2018-06-23T01:01:59.399Z,10.70
2018-06-23T01:04:27.927Z,10.60
2018-06-23T01:06:56.446Z,10.60
2018-06-23T01:09:25.196Z,10.60
2018-06-23T01:11:54.188Z,10.60
2018-06-23T01:14:22.763Z,10.70
2018-06-23T01:16:51.287Z,10.80
2018-06-23T01:19:19.784Z,10.80
2018-06-23T01:21:48.367Z,10.80
2018-06-23T01:24:17.012Z,10.70
2018-06-23T01:29:13.876Z,10.60
2018-06-23T01:31:42.628Z,10.70
2018-06-23T01:34:11.094Z,10.70
2018-06-23T01:36:39.643Z,10.70
2018-06-23T01:39:10.455Z,10.70
2018-06-23T01:41:38.975Z,10.70
2018-06-23T01:44:07.715Z,10.70
2018-06-23T01:46:37.270Z,10.70
2018-06-23T01:49:06.123Z,10.80
2018-06-23T01:54:03.381Z,10.80
2018-06-23T01:56:31.886Z,10.70
2018-06-23T01:59:00.366Z,10.70
2018-06-23T02:01:29.112Z,10.60
2018-06-23T02:03:57.861Z,10.70
2018-06-23T02:06:26.384Z,10.60
2018-06-23T02:08:54.926Z,10.70
2018-06-23T02:11:23.416Z,10.70
2018-06-23T02:13:57.597Z,10.60
2018-06-23T02:16:31.832Z,10.70
2018-06-23T02:19:05.457Z,10.60
2018-06-23T02:21:39.444Z,10.60
2018-06-23T02:24:13.359Z,10.60
2018-06-23T02:26:47.288Z,10.60
2018-06-23T02:29:20.951Z,10.60
2018-06-23T02:31:54.767Z,13.20
2018-06-23T02:34:28.545Z,10.60
2018-06-23T02:36:57.064Z,10.60
2018-06-23T02:39:26.230Z,10.60
2018-06-23T02:41:54.731Z,10.50
2018-06-23T02:44:23.710Z,10.50
2018-06-23T02:46:52.202Z,10.50
2018-06-23T02:49:20.786Z,10.50
2018-06-23T02:51:49.471Z,10.40
2018-06-23T02:54:17.948Z,10.30
2018-06-23T02:56:46.693Z,10.30
2018-06-23T02:59:19.075Z,10.40
2018-06-23T03:01:48.397Z,10.30
2018-06-23T03:04:17.443Z,10.40
2018-06-23T03:06:45.996Z,10.30
2018-06-23T03:09:14.715Z,10.30
2018-06-23T03:11:43.239Z,10.40
2018-06-23T03:14:11.751Z,10.40
2018-06-23T03:16:40.461Z,10.40
2018-06-23T03:19:09.039Z,10.30
2018-06-23T03:21:37.852Z,10.30
2018-06-23T03:24:06.554Z,10.30
2018-06-23T03:26:35.271Z,10.30
2018-06-23T03:29:03.806Z,10.30
2018-06-23T03:31:32.311Z,10.30
2018-06-23T03:34:00.889Z,10.30
2018-06-23T03:36:29.947Z,10.40
2018-06-23T03:38:58.753Z,10.40
2018-06-23T03:41:27.246Z,10.40
2018-06-23T03:43:55.853Z,10.40
2018-06-23T03:46:24.399Z,10.40
2018-06-23T03:48:52.942Z,10.40
2018-06-23T03:51:21.695Z,10.40
2018-06-23T03:53:50.183Z,10.40
2018-06-23T03:56:18.668Z,10.40
2018-06-23T03:58:47.176Z,10.40
2018-06-23T04:01:15.915Z,10.40
2018-06-23T04:03:44.511Z,10.30
2018-06-23T04:06:13.033Z,10.40
2018-06-23T04:08:41.507Z,10.40
2018-06-23T04:11:10.080Z,10.40
2018-06-23T04:13:38.736Z,10.50
2018-06-23T04:16:07.484Z,10.40
2018-06-23T04:18:36.158Z,10.50
2018-06-23T04:21:04.811Z,10.60
2018-06-23T04:23:33.258Z,10.70
2018-06-23T04:26:01.974Z,10.70
2018-06-23T04:28:30.460Z,10.70
2018-06-23T04:30:58.938Z,10.70
2018-06-23T04:33:27.833Z,10.80
2018-06-23T04:35:56.724Z,10.60
2018-06-23T04:38:25.427Z,10.70
2018-06-23T04:40:53.976Z,10.70
2018-06-23T04:43:22.832Z,10.80
2018-06-23T04:45:51.684Z,10.70
2018-06-23T04:48:20.405Z,10.60
2018-06-23T04:50:48.903Z,10.70
2018-06-23T04:53:17.396Z,10.70
2018-06-23T04:55:46.794Z,10.70
2018-06-23T04:58:15.277Z,10.70
2018-06-23T05:00:43.832Z,10.80
2018-06-23T05:05:40.703Z,10.90
2018-06-23T05:08:09.210Z,10.90
2018-06-23T05:10:37.703Z,10.80
2018-06-23T05:13:06.619Z,10.90
2018-06-23T05:15:35.336Z,7.90
2018-06-23T05:20:32.332Z,11.00
2018-06-23T05:23:00.865Z,11.00
2018-06-23T05:25:29.341Z,11.00
2018-06-23T05:27:57.830Z,11.10
2018-06-23T05:30:26.357Z,11.20
2018-06-23T05:32:54.848Z,11.00
2018-06-23T05:35:23.461Z,11.10
2018-06-23T05:37:52.624Z,11.10
2018-06-23T05:40:21.108Z,11.20
2018-06-23T05:42:49.778Z,11.20
2018-06-23T05:45:18.339Z,11.30
2018-06-23T05:47:46.937Z,11.30
2018-06-23T05:50:15.719Z,11.20
2018-06-23T05:52:44.219Z,11.20
2018-06-23T05:55:12.705Z,11.20
2018-06-23T05:57:41.215Z,11.30
2018-06-23T06:00:10.077Z,11.30
2018-06-23T06:02:38.576Z,11.40
2018-06-23T06:05:07.408Z,11.40
2018-06-23T06:07:36.178Z,11.30
2018-06-23T06:10:04.844Z,11.20
2018-06-23T06:12:33.398Z,11.50
2018-06-23T06:15:01.916Z,11.60
2018-06-23T06:17:32.695Z,11.50
2018-06-23T06:20:02.557Z,11.50
2018-06-23T06:22:32.735Z,11.40
2018-06-23T06:25:01.276Z,11.40
2018-06-23T06:27:29.893Z,11.40
2018-06-23T06:29:59.101Z,11.40
2018-06-23T06:32:28.083Z,11.30
2018-06-23T06:34:56.864Z,11.30
2018-06-23T06:37:25.374Z,11.30
2018-06-23T06:39:54.177Z,11.40
2018-06-23T06:42:22.927Z,11.40
2018-06-23T06:44:51.863Z,11.40
2018-06-23T06:47:20.998Z,11.30
2018-06-23T06:49:49.608Z,11.20
2018-06-23T06:52:18.247Z,11.10
2018-06-23T06:54:47.112Z,11.20
2018-06-23T06:57:15.863Z,11.20
2018-06-23T06:59:44.305Z,11.30
2018-06-23T07:02:12.913Z,11.10
2018-06-23T07:04:41.411Z,11.00
2018-06-23T07:07:10.065Z,11.00
2018-06-23T07:09:39.021Z,10.90
2018-06-23T07:12:07.862Z,10.80
2018-06-23T07:14:36.602Z,10.80
2018-06-23T07:17:05.398Z,10.70
2018-06-23T07:19:34.071Z,10.60
2018-06-23T07:22:03.027Z,10.60
2018-06-23T07:24:31.598Z,10.50
2018-06-23T07:27:00.483Z,10.50
2018-06-23T07:29:28.952Z,10.50
2018-06-23T07:31:57.629Z,10.40
2018-06-23T07:34:26.214Z,10.50
2018-06-23T07:36:54.920Z,10.40
2018-06-23T07:41:52.374Z,10.60
2018-06-23T07:44:20.919Z,10.60
2018-06-23T07:46:49.499Z,10.60
2018-06-23T07:49:18.405Z,10.60
2018-06-23T07:51:47.213Z,10.60
2018-06-23T07:54:15.940Z,10.60
2018-06-23T07:56:44.757Z,10.60
2018-06-23T07:59:13.589Z,10.50
2018-06-23T08:01:43.309Z,10.60
2018-06-23T08:04:12.323Z,10.60
2018-06-23T08:06:40.906Z,10.60
2018-06-23T08:09:10.082Z,10.60
2018-06-23T08:11:39.163Z,10.70
2018-06-23T08:14:07.842Z,11.10
2018-06-23T08:16:36.643Z,11.40
2018-06-23T08:19:05.801Z,11.50
2018-06-23T08:21:34.358Z,11.70
2018-06-23T08:24:03.458Z,12.00
2018-06-23T08:26:32.209Z,12.30
2018-06-23T08:29:00.699Z,12.70
2018-06-23T08:31:29.313Z,12.80
2018-06-23T08:33:58.021Z,12.60
2018-06-23T08:36:26.814Z,12.50
2018-06-23T08:38:55.450Z,12.10
2018-06-23T08:41:24.355Z,12.30
2018-06-23T08:43:52.936Z,12.60
2018-06-23T08:46:21.634Z,12.90
2018-06-23T08:48:50.529Z,12.90
2018-06-23T08:51:19.545Z,13.30
2018-06-23T08:53:48.109Z,13.00
2018-06-23T08:56:18.210Z,12.80
2018-06-23T08:58:47.068Z,12.50
2018-06-23T09:01:15.609Z,12.40
2018-06-23T09:03:44.584Z,12.70
2018-06-23T09:06:13.585Z,12.90
2018-06-23T09:08:42.461Z,13.20
2018-06-23T09:11:11.648Z,13.30
2018-06-23T09:13:40.458Z,13.40
2018-06-23T09:16:09.200Z,13.50
2018-06-23T09:18:38.302Z,13.50
2018-06-23T09:21:08.256Z,13.70
2018-06-23T09:23:36.809Z,14.10
2018-06-23T09:26:05.593Z,14.60
2018-06-23T09:28:34.154Z,15.00
2018-06-23T09:31:03.147Z,15.40
2018-06-23T09:33:31.820Z,15.90
2018-06-23T09:36:00.784Z,15.80
2018-06-23T09:38:29.659Z,15.70
2018-06-23T09:40:58.257Z,16.10
2018-06-23T09:43:27.077Z,15.90
2018-06-23T09:45:55.860Z,15.90
2018-06-23T09:48:24.556Z,15.40
2018-06-23T09:50:53.330Z,15.50
2018-06-23T09:53:21.956Z,15.80
2018-06-23T09:55:50.554Z,16.70
2018-06-23T09:58:19.428Z,15.10
2018-06-23T10:00:48.166Z,15.10
2018-06-23T10:03:16.881Z,15.30
2018-06-23T10:05:45.604Z,15.80
2018-06-23T10:08:14.359Z,16.30
2018-06-23T10:10:43.073Z,16.60
2018-06-23T10:13:11.774Z,16.90
2018-06-23T10:15:40.765Z,17.20
2018-06-23T10:18:09.409Z,17.40
2018-06-23T10:20:38.042Z,17.60
2018-06-23T10:23:06.653Z,17.10
2018-06-23T10:25:35.570Z,17.70
2018-06-23T10:28:04.395Z,18.40
2018-06-23T10:30:33.295Z,19.10
2018-06-23T10:33:02.078Z,18.90
2018-06-23T10:35:30.655Z,18.70
2018-06-23T10:37:59.278Z,18.80
2018-06-23T10:40:27.790Z,18.50
2018-06-23T10:42:56.536Z,18.60
2018-06-23T10:45:25.233Z,18.30
2018-06-23T10:47:54.083Z,18.10
2018-06-23T10:50:22.748Z,19.00
2018-06-23T10:55:20.190Z,19.20
2018-06-23T10:57:48.823Z,18.70
2018-06-23T11:00:17.311Z,17.50
2018-06-23T11:02:45.849Z,17.00
2018-06-23T11:05:14.617Z,16.50
2018-06-23T11:07:43.362Z,16.40
2018-06-23T11:10:12.131Z,16.80
2018-06-23T11:12:41.092Z,17.60
2018-06-23T11:15:09.715Z,19.10
2018-06-23T11:17:38.408Z,20.20
2018-06-23T11:20:07.263Z,21.20
2018-06-23T11:22:37.972Z,22.20
2018-06-23T11:25:06.687Z,21.50
2018-06-23T11:27:35.187Z,20.20
2018-06-23T11:30:04.377Z,19.30
2018-06-23T11:35:01.243Z,19.90
2018-06-23T11:37:29.834Z,21.00
2018-06-23T11:39:58.541Z,22.10
2018-06-23T11:42:27.179Z,22.10
2018-06-23T11:44:55.859Z,21.20
2018-06-23T11:47:24.388Z,20.60
2018-06-23T11:49:53.409Z,20.50
2018-06-23T11:52:22.464Z,20.40
2018-06-23T11:54:50.977Z,20.70
2018-06-23T11:57:20.052Z,20.20
2018-06-23T11:59:48.874Z,19.80
2018-06-23T12:02:17.415Z,19.30
2018-06-23T12:04:46.255Z,19.40
2018-06-23T12:07:15.104Z,20.70
2018-06-23T12:09:43.755Z,20.50
2018-06-23T12:12:12.407Z,20.10
2018-06-23T12:14:41.134Z,20.00
2018-06-23T12:17:09.694Z,19.30
2018-06-23T12:19:38.775Z,19.40
2018-06-23T12:22:07.564Z,19.20
2018-06-23T12:24:36.459Z,19.10
2018-06-23T12:27:05.065Z,19.00
2018-06-23T12:29:33.723Z,19.10
2018-06-23T12:32:02.268Z,19.20
2018-06-23T12:34:30.892Z,19.40
2018-06-23T12:36:59.580Z,19.60
2018-06-23T12:39:28.255Z,19.70
2018-06-23T12:41:56.957Z,19.60
2018-06-23T12:44:25.548Z,19.50
2018-06-23T12:46:54.562Z,19.90
2018-06-23T12:49:23.321Z,20.10
2018-06-23T12:51:52.082Z,19.40
2018-06-23T12:54:20.679Z,19.10
2018-06-23T12:56:49.423Z,19.30
2018-06-23T12:59:18.448Z,19.50
2018-06-23T13:01:46.975Z,19.80
2018-06-23T13:04:15.618Z,19.80
2018-06-23T13:06:44.227Z,19.60
2018-06-23T13:11:41.686Z,18.90
2018-06-23T13:14:10.306Z,18.40
2018-06-23T13:16:38.807Z,18.40
2018-06-23T13:19:07.377Z,18.50
2018-06-23T13:21:35.980Z,18.40
2018-06-23T13:24:04.981Z,18.50
2018-06-23T13:26:33.653Z,18.10
2018-06-23T13:29:02.259Z,18.00
2018-06-23T13:31:30.787Z,18.00
2018-06-23T13:33:59.581Z,18.00
2018-06-23T13:38:56.759Z,19.00
2018-06-23T13:41:25.803Z,19.90
2018-06-23T13:43:54.452Z,21.60
2018-06-23T13:46:23.140Z,23.70
2018-06-23T13:48:52.151Z,25.30
2018-06-23T13:51:20.701Z,25.00
2018-06-23T13:53:49.896Z,23.70
2018-06-23T13:56:18.629Z,23.00
2018-06-23T13:58:47.262Z,21.70
2018-06-23T14:01:16.185Z,20.80
2018-06-23T14:03:44.829Z,19.80
2018-06-23T14:06:13.421Z,20.10
2018-06-23T14:08:42.332Z,20.40
2018-06-23T14:11:11.006Z,20.60
2018-06-23T14:13:39.675Z,21.10
2018-06-23T14:16:08.713Z,22.20
2018-06-23T14:18:37.431Z,22.40
2018-06-23T14:21:06.174Z,21.30
2018-06-23T14:23:34.916Z,21.00
2018-06-23T14:26:04.011Z,21.00
2018-06-23T14:28:32.688Z,22.70
2018-06-23T14:31:01.244Z,24.80
2018-06-23T14:33:30.183Z,24.60
2018-06-23T14:35:58.734Z,24.50
2018-06-23T14:38:27.434Z,23.50
2018-06-23T14:40:56.415Z,22.90
2018-06-23T14:43:24.926Z,23.90
2018-06-23T14:45:53.838Z,25.30
2018-06-23T14:48:22.674Z,26.70
2018-06-23T14:50:51.480Z,28.30
2018-06-23T14:53:20.079Z,27.90
2018-06-23T14:55:48.633Z,26.40
2018-06-23T14:58:17.347Z,24.80
2018-06-23T15:00:46.070Z,25.10
2018-06-23T15:03:15.145Z,26.80
2018-06-23T15:05:43.811Z,27.40
2018-06-23T15:10:57.628Z,28.60
2018-06-23T15:13:26.469Z,30.00
2018-06-23T15:15:55.260Z,29.60
2018-06-23T15:18:23.936Z,30.00
2018-06-23T15:20:52.666Z,29.10
2018-06-23T15:23:21.228Z,28.90
2018-06-23T15:25:49.745Z,29.70
2018-06-23T15:28:18.377Z,28.90
2018-06-23T15:30:47.355Z,28.10
2018-06-23T15:33:15.922Z,27.60
2018-06-23T15:35:44.453Z,28.10
2018-06-23T15:38:13.096Z,28.20
2018-06-23T15:40:41.597Z,27.70
2018-06-23T15:43:10.399Z,27.00
2018-06-23T15:45:38.907Z,27.50
2018-06-23T15:48:07.439Z,26.00
2018-06-23T15:50:36.184Z,24.80
2018-06-23T15:53:04.798Z,24.10
2018-06-23T15:55:33.504Z,24.40
2018-06-23T15:58:02.397Z,24.20
2018-06-23T16:00:31.380Z,23.40
2018-06-23T16:02:59.972Z,22.80
2018-06-23T16:05:28.528Z,23.10
2018-06-23T16:07:57.083Z,23.30
2018-06-23T16:10:26.441Z,22.90
2018-06-23T16:12:55.860Z,22.90
2018-06-23T16:15:24.646Z,22.50
2018-06-23T16:17:53.575Z,22.80
2018-06-23T16:20:22.181Z,21.90
2018-06-23T16:22:50.847Z,21.70
2018-06-23T16:25:19.384Z,21.70
2018-06-23T16:27:47.891Z,21.50
2018-06-23T16:30:16.741Z,21.10
2018-06-23T16:32:45.300Z,20.50
2018-06-23T16:37:42.215Z,20.50
2018-06-23T16:40:10.987Z,20.70
2018-06-23T16:42:39.743Z,20.70
2018-06-23T16:45:08.662Z,20.80
2018-06-23T16:47:37.212Z,20.80
2018-06-23T16:50:06.023Z,20.70
2018-06-23T16:52:34.939Z,21.50
2018-06-23T16:55:03.504Z,21.20
2018-06-23T16:57:32.343Z,20.90
2018-06-23T17:00:00.941Z,20.50
2018-06-23T17:02:29.789Z,20.30
2018-06-23T17:04:58.660Z,20.00
2018-06-23T17:07:27.237Z,20.00
2018-06-23T17:09:55.914Z,20.30
2018-06-23T17:12:24.719Z,20.00
2018-06-23T17:14:53.510Z,19.60
2018-06-23T17:17:22.227Z,19.40
2018-06-23T17:19:50.817Z,19.00
2018-06-23T17:22:19.334Z,18.60
2018-06-23T17:24:48.199Z,18.30
2018-06-23T17:27:16.855Z,18.20
2018-06-23T17:29:45.515Z,18.00
2018-06-23T17:32:14.481Z,18.20
2018-06-23T17:34:43.277Z,18.30
2018-06-23T17:37:12.095Z,18.50
2018-06-23T17:39:41.600Z,18.40
2018-06-23T17:42:10.572Z,18.60
2018-06-23T17:44:39.152Z,18.80
2018-06-23T17:47:07.920Z,18.80
2018-06-23T17:49:36.592Z,19.10
2018-06-23T17:52:05.286Z,19.20
2018-06-23T17:57:02.660Z,19.20
2018-06-23T17:59:31.189Z,19.20
2018-06-23T18:01:59.823Z,18.90
2018-06-23T18:06:57.286Z,18.70
2018-06-23T18:09:25.952Z,18.50
2018-06-23T18:11:54.618Z,18.20
2018-06-23T18:14:23.265Z,18.20
2018-06-23T18:16:52.081Z,18.10
2018-06-23T18:19:20.795Z,18.10
2018-06-23T18:21:49.826Z,17.90
2018-06-23T18:24:18.829Z,17.70
2018-06-23T18:26:47.336Z,17.70
2018-06-23T18:29:16.040Z,17.70
2018-06-23T18:31:44.843Z,17.60
2018-06-23T18:34:13.527Z,15.50
2018-06-23T18:36:42.300Z,17.30
2018-06-23T18:39:11.765Z,17.20
2018-06-23T18:41:40.350Z,17.10
2018-06-23T18:44:09.139Z,17.00
2018-06-23T18:46:37.799Z,16.90
2018-06-23T18:49:06.406Z,16.90
2018-06-23T18:51:34.944Z,16.90
2018-06-23T18:54:03.503Z,16.90
2018-06-23T18:56:32.115Z,16.70
2018-06-23T18:59:00.812Z,16.60
2018-06-23T19:01:29.360Z,16.70
2018-06-23T19:03:57.971Z,16.80
2018-06-23T19:06:26.564Z,16.70
2018-06-23T19:08:55.472Z,16.50
2018-06-23T19:11:24.054Z,16.40
2018-06-23T19:13:52.897Z,16.30
2018-06-23T19:16:21.455Z,16.20
2018-06-23T19:18:50.111Z,16.20
2018-06-23T19:21:18.594Z,16.10
2018-06-23T19:23:47.492Z,16.10
2018-06-23T19:26:16.158Z,16.00
2018-06-23T19:28:44.743Z,16.00
2018-06-23T19:31:13.612Z,15.90
2018-06-23T19:33:42.327Z,15.90
2018-06-23T19:36:11.132Z,15.80
2018-06-23T19:38:39.831Z,15.80
2018-06-23T19:41:23.529Z,15.70
2018-06-23T19:43:52.296Z,15.70
2018-06-23T19:46:21.117Z,15.60
2018-06-23T19:48:50.055Z,15.60
2018-06-23T19:51:18.689Z,15.60
2018-06-23T19:53:47.836Z,15.50
2018-06-23T19:56:16.330Z,15.50
2018-06-23T19:58:44.994Z,15.40
2018-06-23T20:01:13.560Z,15.40
2018-06-23T20:03:42.286Z,15.30
2018-06-23T20:06:11.215Z,15.10
2018-06-23T20:08:39.997Z,14.90
2018-06-23T20:11:08.585Z,14.70
2018-06-23T20:13:37.411Z,14.60
2018-06-23T20:16:06.138Z,14.50
2018-06-23T20:18:34.877Z,14.40
2018-06-23T20:21:03.704Z,14.50
2018-06-23T20:23:32.544Z,14.40
2018-06-23T20:26:01.198Z,14.30
2018-06-23T20:28:29.744Z,14.20
2018-06-23T20:30:58.373Z,14.00
2018-06-23T20:33:27.248Z,13.80
2018-06-23T20:38:24.245Z,13.70
2018-06-23T20:40:52.872Z,13.50
2018-06-23T20:43:21.406Z,13.40
2018-06-23T20:45:50.202Z,13.30
2018-06-23T20:48:18.825Z,13.00
2018-06-23T20:50:47.591Z,12.90
2018-06-23T20:53:16.420Z,12.80
2018-06-23T20:55:44.927Z,12.80
2018-06-23T20:58:14.021Z,12.70
2018-06-23T21:00:42.748Z,12.70
2018-06-23T21:03:11.520Z,12.70
2018-06-23T21:05:40.078Z,12.60
2018-06-23T21:08:08.823Z,12.60
2018-06-23T21:10:41.110Z,12.50
2018-06-23T21:13:10.127Z,12.50
2018-06-23T21:15:38.716Z,12.40
2018-06-23T21:18:07.585Z,12.40
2018-06-23T21:20:36.347Z,12.40
2018-06-23T21:23:05.053Z,12.30
2018-06-23T21:25:33.998Z,12.20
2018-06-23T21:28:02.717Z,12.10
2018-06-23T21:30:31.286Z,12.20
2018-06-23T21:33:00.014Z,12.30
2018-06-23T21:35:28.860Z,12.30
2018-06-23T21:37:57.381Z,12.20
2018-06-23T21:40:26.013Z,12.10
2018-06-23T21:42:54.651Z,12.10
2018-06-23T21:45:23.496Z,12.00
2018-06-23T21:47:52.081Z,11.90
2018-06-23T21:50:26.118Z,11.80
2018-06-23T21:52:54.927Z,11.80
2018-06-23T21:55:23.682Z,11.70
2018-06-23T21:57:52.400Z,11.60
2018-06-23T22:00:40.806Z,11.60
2018-06-23T22:03:11.771Z,11.50
2018-06-23T22:05:40.299Z,11.40
2018-06-23T22:08:09.644Z,11.40
2018-06-23T22:10:38.411Z,11.30
2018-06-23T22:13:07.247Z,11.30
2018-06-23T22:15:35.803Z,11.30
2018-06-23T22:18:04.577Z,11.30
2018-06-23T22:20:33.094Z,11.10
2018-06-23T22:23:01.628Z,11.10
2018-06-23T22:25:30.349Z,11.10
2018-06-23T22:27:59.095Z,11.00
2018-06-23T22:30:27.839Z,11.00
2018-06-23T22:32:56.587Z,11.10
2018-06-23T22:35:25.480Z,11.10
2018-06-23T22:37:54.335Z,11.00
2018-06-23T22:40:22.859Z,11.00
2018-06-23T22:45:19.815Z,11.10
2018-06-23T22:47:48.364Z,11.00
2018-06-23T22:50:16.877Z,10.80
2018-06-23T22:52:45.438Z,10.90
2018-06-23T22:55:14.494Z,10.80
2018-06-23T22:57:43.053Z,10.70
2018-06-23T23:00:13.568Z,10.70
2018-06-23T23:02:43.342Z,10.60
2018-06-23T23:05:12.100Z,10.70
2018-06-23T23:07:41.487Z,10.60
2018-06-23T23:10:10.861Z,10.70
2018-06-23T23:12:39.756Z,10.60
2018-06-23T23:15:08.246Z,10.60
2018-06-23T23:17:36.747Z,10.50
2018-06-23T23:20:05.915Z,10.40
2018-06-23T23:22:34.520Z,10.40
2018-06-23T23:25:03.217Z,10.30
2018-06-23T23:27:31.704Z,10.30
2018-06-23T23:30:00.263Z,10.20
2018-06-23T23:32:28.765Z,10.20
2018-06-23T23:34:57.284Z,10.20
2018-06-23T23:37:26.052Z,10.20
2018-06-23T23:39:54.559Z,10.10
2018-06-23T23:42:23.049Z,10.10
2018-06-23T23:44:51.519Z,10.00
2018-06-23T23:47:20.076Z,9.90
2018-06-23T23:49:48.577Z,10.00
2018-06-23T23:52:17.387Z,9.90
2018-06-23T23:54:46.546Z,9.80
2018-06-23T23:57:15.028Z,9.70
2018-06-23T23:59:43.724Z,9.70
